Time;durP1;ratioP1;P1;durP2;ratioP2;P2;SDS_P1;SDS_P2;PMS_P1;PMS_P2;Temp;Humidity;BMP_temperature;BMP_pressure;BME280_temperature;BME280_humidity;BME280_pressure;Samples;Min_cycle;Max_cycle;Signal;HPM_P1;HPM_P2
2021/08/02 04:47:40;;;;;;;10.45;5.75;;;;;;;14.75;81.63;99494.56;5005581;28;106119;-63
2021/08/02 04:50:05;;;;;;;8.38;5.75;;;;;;;14.84;81.73;99511.22;5006519;27;106032;-62
2021/08/02 04:52:31;;;;;;;8.20;5.28;;;;;;;14.92;82.22;99504.78;5003923;28;106335;-62
2021/08/02 04:54:57;;;;;;;9.82;5.35;;;;;;;14.99;82.03;99503.69;5004253;28;106709;-62
2021/08/02 04:57:22;;;;;;;7.63;5.38;;;;;;;15.03;82.20;99507.59;5004525;28;106012;-63
2021/08/02 04:59:47;;;;;;;8.73;5.47;;;;;;;15.11;82.19;99506.53;5006101;28;105991;-62
2021/08/02 05:02:12;;;;;;;10.73;5.68;;;;;;;15.18;81.77;99507.28;5005365;28;106168;-63
2021/08/02 05:04:38;;;;;;;8.80;5.82;;;;;;;15.31;81.91;99510.91;5004795;28;107208;-63
2021/08/02 05:07:03;;;;;;;5.72;5.13;;;;;;;15.41;81.79;99511.25;5003899;28;109567;-62
2021/08/02 05:09:29;;;;;;;8.45;4.97;;;;;;;15.50;81.56;99523.38;5005855;28;106357;-65
2021/08/02 05:11:54;;;;;;;7.25;5.47;;;;;;;15.57;81.12;99518.78;5005260;28;106372;-63
2021/08/02 05:14:19;;;;;;;6.35;4.93;;;;;;;15.67;81.27;99523.63;5005234;28;106052;-63
2021/08/02 05:16:45;;;;;;;10.60;5.30;;;;;;;15.77;80.67;99525.81;4994607;28;106118;-63
2021/08/02 05:19:11;;;;;;;11.40;6.53;;;;;;;15.81;80.53;99526.25;4985136;28;106225;-63
2021/08/02 05:21:37;;;;;;;8.32;5.53;;;;;;;15.87;80.24;99523.50;4984989;28;106152;-63
2021/08/02 05:24:03;;;;;;;6.60;5.03;;;;;;;15.90;80.16;99531.09;4984882;28;105766;-63
2021/08/02 05:26:29;;;;;;;6.82;5.35;;;;;;;15.90;80.02;99519.53;4984949;28;105851;-62
2021/08/02 05:28:54;;;;;;;6.32;5.03;;;;;;;15.93;79.80;99519.09;4985791;28;105887;-64
2021/08/02 05:31:19;;;;;;;8.57;5.43;;;;;;;15.98;79.80;99523.78;4985023;28;106112;-63
2021/08/02 05:33:45;;;;;;;9.88;5.03;;;;;;;16.02;79.92;99525.81;4984640;28;105809;-63
2021/08/02 05:36:10;;;;;;;7.57;5.05;;;;;;;16.08;79.63;99524.91;4984605;28;106088;-63
2021/08/02 05:38:35;;;;;;;7.53;4.93;;;;;;;16.12;79.34;99528.00;4985723;28;106033;-64
2021/08/02 05:41:01;;;;;;;8.07;4.68;;;;;;;16.12;79.07;99528.00;4983170;28;106073;-64
2021/08/02 05:43:26;;;;;;;7.45;4.70;;;;;;;16.18;78.87;99528.97;4984786;28;105992;-64
2021/08/02 05:45:52;;;;;;;7.60;5.20;;;;;;;16.23;79.05;99535.31;4984015;28;105949;-65
2021/08/02 05:48:18;;;;;;;8.07;5.40;;;;;;;16.26;78.64;99535.91;4985646;28;105909;-64
2021/08/02 05:50:43;;;;;;;7.47;5.20;;;;;;;16.33;78.68;99537.47;4984289;28;106147;-64
2021/08/02 05:53:08;;;;;;;6.50;4.93;;;;;;;16.48;78.63;99541.66;4984640;28;107236;-64
2021/08/02 05:55:37;;;;;;;6.72;5.03;;;;;;;16.59;78.19;99538.22;4984272;28;105948;-68
2021/08/02 05:58:02;;;;;;;8.30;5.18;;;;;;;16.77;78.31;99544.63;4977337;28;106051;-68
2021/08/02 06:00:27;;;;;;;6.07;4.80;;;;;;;16.92;77.71;99547.75;4971507;28;105779;-69
2021/08/02 06:02:53;;;;;;;7.45;4.88;;;;;;;17.08;77.37;99549.78;4970996;28;105926;-68
2021/08/02 06:05:18;;;;;;;9.75;5.00;;;;;;;17.27;77.50;99554.31;4970940;28;105963;-69
2021/08/02 06:07:43;;;;;;;8.80;5.25;;;;;;;17.38;77.05;99559.72;4970419;28;106177;-68
2021/08/02 06:10:11;;;;;;;8.05;4.88;;;;;;;17.38;76.13;99553.53;4971334;28;105693;-68
2021/08/02 06:12:36;;;;;;;11.95;5.32;;;;;;;17.33;75.75;99558.78;4970675;28;107115;-68
2021/08/02 06:15:01;;;;;;;6.53;4.90;;;;;;;17.35;75.94;99556.69;4970754;28;106757;-68
2021/08/02 06:17:26;;;;;;;8.43;5.10;;;;;;;17.35;76.06;99554.78;4971637;28;106115;-68
2021/08/02 06:19:52;;;;;;;8.02;5.00;;;;;;;17.38;75.96;99561.59;4971131;28;106380;-68
2021/08/02 06:22:17;;;;;;;7.72;4.95;;;;;;;17.37;75.46;99557.25;4970538;28;106144;-68
2021/08/02 06:24:43;;;;;;;6.45;4.97;;;;;;;17.38;75.55;99561.59;4970761;28;106107;-68
2021/08/02 06:27:09;;;;;;;6.57;4.57;;;;;;;17.39;75.14;99564.06;4971403;28;106049;-69
2021/08/02 06:29:35;;;;;;;7.10;4.72;;;;;;;17.44;75.29;99566.03;4971022;28;106132;-67
2021/08/02 06:32:00;;;;;;;7.30;4.65;;;;;;;17.55;75.32;99564.44;4970507;28;107120;-68
2021/08/02 06:34:25;;;;;;;7.90;5.72;;;;;;;17.65;75.23;99567.38;4970596;28;106021;-67
2021/08/02 06:36:51;;;;;;;6.18;4.60;;;;;;;17.72;74.58;99568.09;4971492;28;106212;-67
2021/08/02 06:39:16;;;;;;;9.32;4.95;;;;;;;17.80;74.72;99564.25;4970657;28;106626;-67
2021/08/02 06:41:41;;;;;;;5.75;4.70;;;;;;;17.90;74.50;99575.25;4970536;28;105965;-67
2021/08/02 06:44:07;;;;;;;7.85;5.65;;;;;;;18.05;74.32;99569.41;4969698;28;106075;-66
2021/08/02 06:46:32;;;;;;;5.68;4.88;;;;;;;18.24;73.98;99567.41;4970753;28;105974;-67
2021/08/02 06:48:57;;;;;;;8.90;4.65;;;;;;;18.50;73.92;99572.56;4970535;28;106118;-67
2021/08/02 06:51:23;;;;;;;7.53;4.63;;;;;;;18.76;73.28;99576.59;4970212;28;110023;-67
2021/08/02 06:53:48;;;;;;;7.15;4.78;;;;;;;18.94;72.95;99578.31;4970196;28;105970;-67
2021/08/02 06:56:13;;;;;;;5.88;4.88;;;;;;;18.90;71.68;99577.16;4971095;28;105981;-67
2021/08/02 06:58:39;;;;;;;6.65;4.50;;;;;;;19.00;71.16;99576.53;4970528;28;106135;-67
2021/08/02 07:01:04;;;;;;;5.72;4.53;;;;;;;19.05;71.13;99584.72;4961725;28;106079;-68
2021/08/02 07:03:29;;;;;;;5.53;4.85;;;;;;;19.06;70.99;99589.06;4949586;28;106374;-71
2021/08/02 07:05:55;;;;;;;5.45;4.30;;;;;;;19.15;70.15;99595.72;4965937;28;106025;-70
2021/08/02 07:08:20;;;;;;;6.25;4.88;;;;;;;19.40;70.05;99586.47;4968864;28;106001;-72
2021/08/02 07:10:46;;;;;;;9.57;4.70;;;;;;;19.78;70.17;99593.84;4967429;28;105943;-73
2021/08/02 07:13:11;;;;;;;8.95;4.55;;;;;;;20.14;69.69;99590.09;4968114;28;106101;-74
2021/08/02 07:15:37;;;;;;;6.15;4.63;;;;;;;20.33;68.83;99593.34;4969216;28;106104;-73
2021/08/02 07:18:02;;;;;;;6.45;4.63;;;;;;;20.42;67.89;99587.25;4968609;28;106214;-72
2021/08/02 07:20:27;;;;;;;7.15;4.85;;;;;;;20.56;67.48;99597.72;4967779;28;106087;-72
2021/08/02 07:22:53;;;;;;;7.30;4.57;;;;;;;20.53;66.72;99596.31;4968180;28;106536;-73
2021/08/02 07:25:18;;;;;;;6.55;4.35;;;;;;;20.44;66.58;99598.63;4966589;28;106534;-73
2021/08/02 07:27:44;;;;;;;6.97;4.00;;;;;;;20.41;66.83;99601.84;4963772;28;106250;-65
2021/08/02 07:30:10;;;;;;;8.38;3.83;;;;;;;20.36;65.91;99592.84;4969030;28;106114;-64
2021/08/02 07:32:36;;;;;;;5.65;4.00;;;;;;;20.16;64.34;99607.72;4969578;28;106017;-65
2021/08/02 07:35:02;;;;;;;4.65;3.92;;;;;;;20.19;64.59;99606.38;4970234;28;106109;-66
2021/08/02 07:37:27;;;;;;;5.90;4.63;;;;;;;20.31;65.17;99606.28;4969625;28;106211;-66
2021/08/02 07:39:53;;;;;;;6.28;4.20;;;;;;;20.54;65.42;99607.94;4969187;28;105949;-66
2021/08/02 07:42:18;;;;;;;6.28;4.68;;;;;;;20.67;63.62;99607.59;4969485;28;105995;-66
2021/08/02 07:44:44;;;;;;;11.70;4.72;;;;;;;20.61;63.46;99612.13;4970358;28;106114;-65
2021/08/02 07:47:09;;;;;;;7.63;4.85;;;;;;;20.77;63.50;99612.34;4969199;28;105815;-66
2021/08/02 07:49:34;;;;;;;5.90;5.30;;;;;;;20.97;63.14;99617.19;4969349;28;110261;-66
2021/08/02 07:51:59;;;;;;;5.28;4.50;;;;;;;21.18;62.66;99620.91;4969043;28;106501;-65
2021/08/02 07:54:25;;;;;;;6.28;4.78;;;;;;;21.48;62.28;99619.59;4969952;28;105917;-66
2021/08/02 07:56:51;;;;;;;5.88;4.95;;;;;;;21.64;60.91;99628.72;4969117;28;105962;-66
2021/08/02 07:59:16;;;;;;;6.03;4.45;;;;;;;21.59;60.85;99626.78;4969429;28;106015;-66
2021/08/02 08:01:41;;;;;;;9.32;4.32;;;;;;;21.79;61.12;99636.19;4969124;28;105996;-66
2021/08/02 08:04:07;;;;;;;5.85;4.82;;;;;;;22.06;60.28;99632.56;4970066;28;106234;-65
2021/08/02 08:06:32;;;;;;;7.60;4.15;;;;;;;22.24;59.37;99642.19;4969075;28;106219;-65
2021/08/02 08:08:57;;;;;;;5.45;3.20;;;;;;;22.43;58.73;99639.91;4968640;28;106754;-66
2021/08/02 08:11:23;;;;;;;4.32;3.13;;;;;;;22.65;57.63;99639.78;4969017;28;105882;-65
2021/08/02 08:13:48;;;;;;;3.85;2.90;;;;;;;22.87;57.83;99641.47;4969815;28;105959;-66
2021/08/02 08:16:14;;;;;;;5.20;3.05;;;;;;;23.07;57.26;99633.41;4968804;28;106218;-66
2021/08/02 08:18:39;;;;;;;3.22;2.50;;;;;;;23.25;55.83;99637.59;4969081;28;105977;-66
2021/08/02 08:21:04;;;;;;;4.50;2.92;;;;;;;23.24;55.04;99638.66;4967664;28;106424;-66
2021/08/02 08:23:31;;;;;;;8.30;2.95;;;;;;;23.33;54.95;99647.09;4969806;28;105902;-67
2021/08/02 08:26:01;;;;;;;4.78;3.30;;;;;;;23.34;53.74;99639.78;4968611;28;105760;-66
2021/08/02 08:28:26;;;;;;;4.45;2.75;;;;;;;23.49;53.58;99645.22;4968728;28;105904;-66
2021/08/02 08:30:53;;;;;;;6.10;4.53;;;;;;;23.29;51.84;99635.97;4969028;28;106015;-67
2021/08/02 08:33:18;;;;;;;5.55;2.80;;;;;;;22.97;52.15;99638.81;4969669;28;105909;-64
2021/08/02 08:35:44;;;;;;;5.13;2.58;;;;;;;22.94;52.58;99633.91;4969301;28;105853;-64
2021/08/02 08:38:10;;;;;;;3.60;2.75;;;;;;;23.17;52.55;99631.84;4968588;28;105968;-67
2021/08/02 08:40:36;;;;;;;14.27;5.25;;;;;;;23.58;52.47;99653.66;4968591;28;105935;-67
2021/08/02 08:43:03;;;;;;;3.63;2.30;;;;;;;24.07;51.05;99649.63;4969632;28;106255;-67
2021/08/02 08:45:28;;;;;;;3.97;2.40;;;;;;;24.40;50.14;99653.69;4968765;28;106128;-67
2021/08/02 08:47:56;;;;;;;4.85;2.60;;;;;;;24.33;49.86;99659.41;4968765;28;106213;-68
2021/08/02 08:50:23;;;;;;;4.68;2.35;;;;;;;24.12;50.17;99661.31;4967275;28;106121;-66
2021/08/02 08:52:50;;;;;;;5.10;2.58;;;;;;;23.87;49.97;99656.69;4968577;28;106340;-67
2021/08/02 08:55:16;;;;;;;4.22;2.47;;;;;;;23.49;50.06;99656.09;4968266;28;106174;-68
2021/08/02 08:57:42;;;;;;;4.15;2.97;;;;;;;23.40;50.29;99655.00;4968153;28;105950;-67
2021/08/02 09:00:27;;;;;;;3.40;2.60;;;;;;;23.58;50.92;99667.25;4967495;28;106080;-66
2021/08/02 09:02:54;;;;;;;6.03;3.00;;;;;;;23.73;50.17;99666.44;4968758;28;105974;-65
2021/08/02 09:05:19;;;;;;;4.25;2.53;;;;;;;23.60;49.98;99668.63;4967680;28;106213;-67
2021/08/02 09:07:46;;;;;;;5.40;3.17;;;;;;;23.46;49.54;99668.31;4967675;28;106668;-67
2021/08/02 09:10:17;;;;;;;3.30;3.00;;;;;;;23.35;49.44;99663.13;4967173;28;106346;-67
2021/08/02 09:12:53;;;;;;;4.30;2.80;;;;;;;22.99;49.09;99670.06;4968469;28;105910;-66
2021/08/02 09:15:43;;;;;;;4.38;2.97;;;;;;;22.89;49.99;99664.56;4968093;28;106198;-67
2021/08/02 09:18:14;;;;;;;5.10;2.92;;;;;;;22.64;49.74;99673.41;4967988;28;106212;-66
2021/08/02 09:20:39;;;;;;;4.95;2.80;;;;;;;22.55;50.33;99681.22;4967332;28;106056;-66
2021/08/02 09:23:12;;;;;;;5.70;3.25;;;;;;;22.60;50.54;99672.31;4968612;28;106113;-67
2021/08/02 09:25:52;;;;;;;4.18;3.25;;;;;;;22.68;50.22;99679.13;4967978;28;105890;-66
2021/08/02 09:28:21;;;;;;;4.85;3.45;;;;;;;22.63;50.17;99678.00;4966784;28;106869;-66
2021/08/02 09:31:02;;;;;;;7.18;3.80;;;;;;;22.88;50.78;99673.81;4967433;28;106952;-64
2021/08/02 09:33:47;;;;;;;8.02;4.53;;;;;;;23.54;50.14;99675.16;4965817;28;106013;-63
2021/08/02 09:36:14;;;;;;;6.70;3.45;;;;;;;24.03;49.35;99673.88;4970856;28;106310;-65
2021/08/02 09:38:40;;;;;;;5.03;3.00;;;;;;;24.69;48.17;99666.72;4971166;28;107222;-65
2021/08/02 09:41:06;;;;;;;5.43;3.10;;;;;;;25.28;47.80;99673.25;4971176;28;106102;-66
2021/08/02 09:43:33;;;;;;;3.63;2.92;;;;;;;25.67;46.78;99672.50;4972194;28;106001;-66
2021/08/02 09:46:03;;;;;;;4.35;2.80;;;;;;;25.89;46.01;99668.53;4970384;28;106334;-66
2021/08/02 09:48:34;;;;;;;;;;;;;;;25.84;45.28;99666.66;4971043;28;106377;-66
2021/08/02 09:51:07;;;;;;;5.45;2.67;;;;;;;25.72;45.06;99671.66;4970615;28;105922;-65
2021/08/02 09:53:38;;;;;;;9.43;2.80;;;;;;;25.78;44.84;99667.81;4970150;28;106156;-64
2021/08/02 09:56:04;;;;;;;3.20;2.63;;;;;;;26.10;44.62;99660.22;4967394;28;106324;-70
2021/08/02 09:58:29;;;;;;;2.30;2.03;;;;;;;26.47;44.04;99670.47;4948757;28;106544;-68
2021/08/02 10:00:55;;;;;;;3.75;2.20;;;;;;;27.15;43.26;99671.34;4948438;28;106464;-70
2021/08/02 10:03:21;;;;;;;3.63;2.20;;;;;;;27.49;42.32;99672.31;4948920;28;106550;-67
2021/08/02 10:05:49;;;;;;;2.72;1.95;;;;;;;27.43;41.92;99665.28;4963626;28;106213;-64
2021/08/02 10:08:17;;;;;;;5.00;2.10;;;;;;;27.35;40.92;99673.00;4967417;28;106219;-67
2021/08/02 10:10:42;;;;;;;3.85;2.10;;;;;;;27.24;40.42;99670.69;4968960;28;106560;-65
2021/08/02 10:13:07;;;;;;;2.78;1.80;;;;;;;27.49;40.67;99666.84;4969553;28;106357;-65
2021/08/02 10:15:34;;;;;;;2.50;1.95;;;;;;;27.76;40.57;99659.84;4968848;28;106066;-68
2021/08/02 10:18:05;;;;;;;3.35;2.00;;;;;;;27.81;39.43;99657.84;4967301;28;106383;-68
2021/08/02 10:20:35;;;;;;;5.45;2.22;;;;;;;27.76;39.95;99662.56;4966096;28;106366;-65
2021/08/02 10:23:02;;;;;;;2.95;2.30;;;;;;;27.74;40.15;99662.88;4968686;28;106073;-69
2021/08/02 10:25:34;;;;;;;12.07;9.35;;;;;;;27.75;39.36;99660.94;4968715;28;106186;-68
2021/08/02 10:28:13;;;;;;;3.25;2.45;;;;;;;28.03;39.98;99668.19;4968251;28;106616;-67
2021/08/02 10:30:39;;;;;;;3.92;2.45;;;;;;;28.46;38.92;99669.06;4968602;28;106397;-67
2021/08/02 10:33:05;;;;;;;5.18;2.40;;;;;;;28.48;37.75;99675.06;4969245;28;106314;-67
2021/08/02 10:35:31;;;;;;;4.68;2.30;;;;;;;28.64;37.37;99668.22;4968333;28;106233;-66
2021/08/02 10:38:02;;;;;;;2.75;1.95;;;;;;;28.54;36.83;99668.34;4967860;28;105992;-67
2021/08/02 10:40:28;;;;;;;3.53;2.30;;;;;;;28.49;36.65;99665.75;4966978;28;106537;-67
2021/08/02 10:42:54;;;;;;;3.95;2.33;;;;;;;28.84;37.18;99660.69;4969228;28;105962;-67
2021/08/02 10:45:33;;;;;;;3.55;2.70;;;;;;;29.18;36.66;99659.44;4967229;28;106345;-66
2021/08/02 10:47:59;;;;;;;2.90;2.15;;;;;;;29.36;36.36;99650.28;4968554;28;107383;-67
2021/08/02 10:50:31;;;;;;;4.53;2.10;;;;;;;29.47;35.71;99656.34;4967917;28;106516;-67
2021/08/02 10:52:57;;;;;;;3.40;2.00;;;;;;;29.68;36.12;99662.16;4969581;28;105961;-67
2021/08/02 10:55:25;;;;;;;5.78;2.40;;;;;;;30.11;35.65;99660.84;4968609;28;106572;-67
2021/08/02 10:58:00;;;;;;;3.83;2.13;;;;;;;30.10;34.84;99656.50;4967696;28;107274;-67
2021/08/02 11:00:27;;;;;;;4.28;2.13;;;;;;;29.90;34.07;99655.06;4967078;28;106603;-67
2021/08/02 11:02:55;;;;;;;3.22;2.05;;;;;;;29.60;33.89;99660.16;4967537;28;106053;-68
2021/08/02 11:05:22;;;;;;;2.55;2.10;;;;;;;29.17;34.18;99657.78;4967263;28;106725;-68
2021/08/02 11:07:47;;;;;;;3.40;2.10;;;;;;;28.72;35.06;99652.16;4966995;28;106695;-66
2021/08/02 11:10:15;;;;;;;4.22;2.20;;;;;;;28.48;35.68;99662.16;4966767;28;107020;-64
2021/08/02 11:12:45;;;;;;;4.25;2.10;;;;;;;27.97;35.82;99658.41;4968402;28;106458;-63
2021/08/02 11:15:11;;;;;;;4.57;2.20;;;;;;;27.58;36.60;99654.09;4967838;28;105956;-64
2021/08/02 11:17:40;;;;;;;2.88;2.25;;;;;;;27.66;37.32;99661.63;4967368;28;107548;-64
2021/08/02 11:20:11;;;;;;;5.10;2.45;;;;;;;27.98;37.02;99660.03;4967433;28;106108;-64
2021/08/02 11:22:49;;;;;;;3.85;2.20;;;;;;;28.28;37.10;99649.69;4968377;28;105956;-64
2021/08/02 11:25:21;;;;;;;2.45;1.95;;;;;;;28.80;36.23;99645.97;4968058;28;106161;-63
2021/08/02 11:27:54;;;;;;;4.25;2.20;;;;;;;29.18;35.79;99648.47;4967774;28;107190;-63
2021/08/02 11:30:20;;;;;;;3.28;2.05;;;;;;;29.94;35.02;99647.81;4967080;28;106281;-64
2021/08/02 11:32:45;;;;;;;3.42;1.88;;;;;;;29.61;33.45;99650.81;4967601;28;106136;-63
2021/08/02 11:35:12;;;;;;;3.13;2.20;;;;;;;29.18;33.70;99645.72;4967460;28;106496;-64
2021/08/02 11:37:37;;;;;;;3.78;2.40;;;;;;;28.83;34.23;99642.63;4966453;28;106161;-64
2021/08/02 11:40:05;;;;;;;3.35;2.20;;;;;;;28.53;35.06;99661.28;4967510;28;106051;-63
2021/08/02 11:42:32;;;;;;;3.45;2.15;;;;;;;28.64;35.37;99654.50;4975663;28;106179;-66
2021/08/02 11:45:01;;;;;;;3.40;2.58;;;;;;;28.54;34.70;99654.66;4969446;28;106272;-64
2021/08/02 11:47:32;;;;;;;3.27;2.23;;;;;;;27.93;34.96;99660.13;4967041;28;106133;-64
2021/08/02 11:49:58;;;;;;;3.45;2.30;;;;;;;27.13;36.01;99651.72;4966939;28;106436;-64
2021/08/02 11:52:25;;;;;;;2.75;2.10;;;;;;;26.23;36.90;99661.44;4968151;28;106106;-64
2021/08/02 11:55:02;;;;;;;2.45;1.90;;;;;;;25.44;38.02;99645.97;4967095;28;106175;-65
2021/08/02 11:57:28;;;;;;;3.45;1.98;;;;;;;24.85;39.08;99659.31;4966746;28;106040;-63
2021/08/02 12:00:18;;;;;;;3.85;2.10;;;;;;;24.45;40.18;99669.19;4967561;28;105981;-63
2021/08/02 12:02:44;;;;;;;;;;;;;;;24.02;40.77;99672.22;4961072;28;106003;-63
2021/08/02 12:05:29;;;;;;;5.07;2.53;;;;;;;23.72;41.99;99676.53;4967478;28;106172;-64
2021/08/02 12:07:56;;;;;;;4.75;3.45;;;;;;;23.55;43.20;99682.22;4962962;28;106630;-64
2021/08/02 12:10:23;;;;;;;4.18;2.90;;;;;;;23.43;43.66;99685.19;4965791;28;106650;-64
2021/08/02 12:12:57;;;;;;;10.00;3.13;;;;;;;23.51;44.27;99686.56;4969348;28;105974;-64
2021/08/02 12:15:23;;;;;;;4.30;2.65;;;;;;;24.04;44.87;99680.91;4948209;28;106415;-64
2021/08/02 12:17:50;;;;;;;6.85;3.00;;;;;;;24.83;43.93;99681.34;4947392;28;106695;-64
2021/08/02 12:20:16;;;;;;;4.10;2.90;;;;;;;24.80;43.37;99695.53;4947284;28;106100;-64
2021/08/02 12:22:41;;;;;;;3.97;2.63;;;;;;;24.45;43.50;99699.13;4964639;28;106190;-63
2021/08/02 12:25:07;;;;;;;3.67;2.05;;;;;;;24.53;44.52;99709.44;4963324;28;106192;-62
2021/08/02 12:27:34;;;;;;;3.78;2.00;;;;;;;24.84;44.57;99701.25;4966657;28;106876;-60
2021/08/02 12:30:09;;;;;;;6.05;2.85;;;;;;;24.69;43.89;99709.44;4965790;28;106972;-63
2021/08/02 12:32:45;;;;;;;9.23;2.67;;;;;;;24.27;44.31;99705.94;4967731;28;106256;-62
2021/08/02 12:35:16;;;;;;;3.55;2.50;;;;;;;23.88;44.92;99707.31;4967265;28;106072;-62
2021/08/02 12:37:44;;;;;;;4.50;2.50;;;;;;;23.57;45.60;99703.69;4966816;28;106026;-61
2021/08/02 12:40:15;;;;;;;5.22;2.50;;;;;;;23.28;46.45;99710.41;4966511;28;106701;-62
2021/08/02 12:42:46;;;;;;;4.60;2.58;;;;;;;23.02;46.82;99705.91;4968199;28;106355;-61
2021/08/02 12:45:13;;;;;;;4.68;2.85;;;;;;;22.75;47.56;99712.31;4968282;28;105848;-64
2021/08/02 12:47:39;;;;;;;4.53;2.65;;;;;;;22.52;48.11;99718.94;4967614;28;107573;-62
2021/08/02 12:50:07;;;;;;;4.47;2.55;;;;;;;22.28;49.10;99719.28;4967730;28;105843;-62
2021/08/02 12:52:33;;;;;;;3.25;2.30;;;;;;;22.05;49.81;99723.97;4968068;28;106075;-61
2021/08/02 12:55:00;;;;;;;4.75;2.60;;;;;;;21.78;49.74;99726.72;4967403;28;106220;-61
2021/08/02 12:57:29;;;;;;;4.30;2.75;;;;;;;21.48;50.26;99734.22;4967643;28;106158;-61
2021/08/02 12:59:58;;;;;;;7.82;3.30;;;;;;;21.30;51.03;99738.06;4967841;28;105959;-62
2021/08/02 13:52:56;;;;;;;3.20;2.45;;;;;;;25.35;44.54;99700.25;4985679;28;106045;-68
2021/08/02 13:55:21;;;;;;;3.47;2.53;;;;;;;25.45;43.69;99707.53;4997830;28;105813;-65
2021/08/02 13:57:47;;;;;;;4.00;2.40;;;;;;;25.25;43.19;99709.25;4988451;28;105855;-66
2021/08/02 14:00:13;;;;;;;4.35;2.28;;;;;;;25.31;43.76;99704.59;5001450;28;106561;-69
2021/08/02 14:02:38;;;;;;;4.57;2.58;;;;;;;25.48;43.54;99699.63;4991096;28;105980;-67
2021/08/02 14:05:07;;;;;;;5.32;2.20;;;;;;;25.56;43.56;99706.41;4996299;28;105856;-67
2021/08/02 14:07:32;;;;;;;5.00;2.05;;;;;;;25.56;43.11;99706.41;4998554;28;106176;-71
2021/08/02 14:09:57;;;;;;;4.07;1.80;;;;;;;25.67;42.59;99694.34;4988180;28;106581;-70
2021/08/02 14:12:29;;;;;;;4.00;2.33;;;;;;;25.63;41.89;99706.91;5000814;28;106462;-65
2021/08/02 14:14:57;;;;;;;2.50;1.90;;;;;;;25.57;41.92;99702.56;4986186;28;106067;-69
2021/08/02 14:17:31;;;;;;;5.03;1.88;;;;;;;25.58;41.79;99706.13;4996712;28;105898;-70
2021/08/02 14:19:58;;;;;;;2.70;1.58;;;;;;;25.67;41.42;99696.22;4988119;28;106039;-70
2021/08/02 14:22:24;;;;;;;2.53;1.65;;;;;;;25.77;40.66;99693.44;5000884;28;106006;-71
2021/08/02 14:24:51;;;;;;;2.47;1.50;;;;;;;25.76;40.13;99704.66;4993084;28;106045;-68
2021/08/02 14:27:17;;;;;;;1.65;1.52;;;;;;;25.48;39.62;99701.56;4993595;28;106162;-68
2021/08/02 14:29:43;;;;;;;3.53;1.92;;;;;;;25.22;39.92;99703.53;4999113;28;106972;-71
2021/08/02 14:32:09;;;;;;;2.72;1.95;;;;;;;24.99;39.64;99703.91;4987980;28;106049;-69
2021/08/02 14:34:34;;;;;;;46.67;8.38;;;;;;;24.90;39.87;99704.78;5004090;28;106091;-68
2021/08/02 14:37:00;;;;;;;3.10;1.65;;;;;;;24.96;39.73;99703.66;4995774;28;105958;-70
2021/08/02 14:39:29;;;;;;;3.10;1.95;;;;;;;24.81;39.54;99699.09;4997021;28;106493;-70
2021/08/02 14:41:59;;;;;;;2.80;2.00;;;;;;;24.53;39.77;99695.84;4987611;28;105922;-66
2021/08/02 14:44:27;;;;;;;9.63;2.40;;;;;;;24.20;40.43;99702.69;5000410;28;106310;-66
2021/08/02 14:46:54;;;;;;;7.13;2.10;;;;;;;24.24;40.68;99699.16;4983591;28;106469;-65
2021/08/02 14:49:24;;;;;;;22.95;3.88;;;;;;;24.32;41.19;99698.59;4979142;28;105971;-71
2021/08/02 14:51:52;;;;;;;;;;;;;;;24.30;40.74;99698.06;4984867;28;105894;-67
2021/08/02 14:54:19;;;;;;;61.75;9.00;;;;;;;24.29;41.14;99695.59;5001769;28;105978;-66
2021/08/02 14:56:45;;;;;;;65.18;8.25;;;;;;;24.23;41.56;99694.78;4984506;28;106233;-65
2021/08/02 14:59:12;;;;;;;111.50;13.32;;;;;;;24.08;41.58;99695.59;4994884;28;105702;-66
2021/08/02 15:01:40;;;;;;;103.78;12.57;;;;;;;23.99;41.83;99687.19;4989223;28;105974;-66
2021/08/02 15:04:07;;;;;;;79.00;8.65;;;;;;;24.07;41.74;99693.16;4988662;28;106312;-67
2021/08/02 15:06:34;;;;;;;35.85;5.43;;;;;;;24.15;41.65;99689.88;4976163;28;106210;-73
2021/08/02 15:09:02;;;;;;;6.95;1.85;;;;;;;24.11;41.29;99683.38;4982451;28;105967;-69
2021/08/02 15:11:31;;;;;;;10.85;2.35;;;;;;;24.06;41.59;99686.06;4963425;28;106128;-69
2021/08/02 15:13:58;;;;;;;5.63;1.90;;;;;;;23.95;41.33;99677.94;4964267;28;106409;-69
2021/08/02 15:16:29;;;;;;;4.68;2.00;;;;;;;23.99;41.95;99687.19;4966944;28;106175;-68
2021/08/02 15:19:14;;;;;;;18.02;3.58;;;;;;;24.10;41.35;99684.47;4981563;28;105941;-67
2021/08/02 15:21:47;;;;;;;2.90;1.55;;;;;;;23.92;41.06;99680.38;4970123;28;106463;-67
2021/08/02 15:24:15;;;;;;;5.68;2.30;;;;;;;23.62;41.07;99684.66;4987225;28;106435;-69
2021/08/02 15:26:43;;;;;;;5.18;1.88;;;;;;;23.47;41.42;99680.03;4976291;28;105992;-66
2021/08/02 15:29:09;;;;;;;7.78;3.88;;;;;;;23.37;41.05;99680.78;4979367;28;105918;-68
2021/08/02 15:31:40;;;;;;;3.40;1.58;;;;;;;23.38;40.72;99676.19;4976211;28;106154;-64
2021/08/02 15:34:06;;;;;;;3.38;1.50;;;;;;;23.37;40.71;99674.56;4987230;28;106483;-68
2021/08/02 15:36:32;;;;;;;2.10;1.30;;;;;;;23.32;39.82;99678.91;4973823;28;106072;-69
2021/08/02 15:38:58;;;;;;;3.75;1.60;;;;;;;23.32;40.14;99692.47;4981022;28;105937;-65
2021/08/02 15:41:23;;;;;;;4.40;1.70;;;;;;;23.24;40.32;99693.00;4970558;28;105991;-69
2021/08/02 15:43:54;;;;;;;2.08;1.30;;;;;;;23.17;40.09;99692.44;4971583;28;106216;-69
2021/08/02 15:46:21;;;;;;;1.95;1.50;;;;;;;22.97;40.78;99696.66;4971057;28;106215;-69
2021/08/02 15:48:47;;;;;;;3.78;2.20;;;;;;;23.01;41.08;99696.94;4970428;28;106235;-69
2021/08/02 15:51:17;;;;;;;4.68;1.55;;;;;;;23.08;40.80;99688.56;4969647;28;105925;-68
2021/08/02 15:53:51;;;;;;;3.58;1.60;;;;;;;23.12;40.82;99692.38;4971429;28;105856;-70
2021/08/02 15:56:20;;;;;;;2.85;1.75;;;;;;;23.08;40.82;99699.44;4970541;28;106767;-70
2021/08/02 15:58:55;;;;;;;2.35;1.30;;;;;;;23.01;41.04;99698.88;4966612;28;107388;-69
2021/08/02 16:01:29;;;;;;;2.92;1.55;;;;;;;22.94;40.92;99697.19;4957765;28;106149;-67
2021/08/02 16:04:05;;;;;;;3.90;1.45;;;;;;;22.86;41.21;99705.03;4951873;28;106399;-71
2021/08/02 16:06:32;;;;;;;4.85;1.45;;;;;;;22.78;41.40;99704.44;4951106;28;106754;-71
2021/08/02 16:09:02;;;;;;;1.83;1.40;;;;;;;22.78;41.36;99704.44;4950930;28;106620;-69
2021/08/02 16:11:32;;;;;;;2.28;1.60;;;;;;;22.77;41.55;99702.00;4949981;28;106038;-68
2021/08/02 16:14:01;;;;;;;2.90;1.40;;;;;;;22.71;41.47;99705.78;4963823;28;106048;-69
2021/08/02 16:16:33;;;;;;;2.85;1.38;;;;;;;22.59;41.96;99709.47;4967557;28;106313;-68
2021/08/02 16:18:59;;;;;;;2.60;1.63;;;;;;;22.59;41.98;99704.06;4968775;28;107570;-69
2021/08/02 16:21:25;;;;;;;2.33;1.50;;;;;;;22.59;42.12;99709.47;4961088;28;106392;-70
2021/08/02 16:23:50;;;;;;;2.97;1.60;;;;;;;22.55;42.10;99716.50;4964283;28;106174;-71
2021/08/02 16:26:15;;;;;;;3.97;1.38;;;;;;;22.52;42.29;99714.31;4962266;28;106015;-72
2021/08/02 16:28:42;;;;;;;2.80;1.95;;;;;;;22.50;42.14;99711.06;4959050;28;106402;-72
2021/08/02 16:31:07;;;;;;;2.70;1.83;;;;;;;22.53;42.12;99715.16;4957351;28;106143;-71
2021/08/02 16:33:33;;;;;;;4.10;1.80;;;;;;;22.57;42.33;99719.00;4952420;28;106116;-69
2021/08/02 16:35:58;;;;;;;4.05;1.85;;;;;;;22.67;42.77;99715.50;4969494;28;106227;-69
2021/08/02 16:38:23;;;;;;;3.53;1.80;;;;;;;22.74;42.52;99721.53;4969045;28;113511;-65
2021/08/02 16:40:49;;;;;;;4.25;1.60;;;;;;;22.71;42.31;99714.72;4958764;28;106582;-64
2021/08/02 16:43:18;;;;;;;2.95;1.50;;;;;;;22.61;42.47;99722.81;4950458;28;106245;-62
2021/08/02 16:45:43;;;;;;;2.55;1.50;;;;;;;22.56;42.63;99726.28;4949927;28;106214;-64
2021/08/02 16:48:08;;;;;;;3.45;1.73;;;;;;;22.50;42.60;99719.22;4949626;28;106267;-63
2021/08/02 16:50:34;;;;;;;3.65;1.70;;;;;;;22.48;42.67;99724.06;4949807;28;105736;-64
2021/08/02 16:52:59;;;;;;;2.92;2.00;;;;;;;22.47;42.84;99722.44;4950894;28;106067;-64
2021/08/02 16:55:25;;;;;;;2.60;1.50;;;;;;;22.36;42.72;99721.53;4949985;28;106038;-65
2021/08/02 16:57:50;;;;;;;5.05;2.03;;;;;;;22.27;42.84;99715.75;4949704;28;106194;-64
2021/08/02 17:00:15;;;;;;;5.50;1.73;;;;;;;22.18;43.05;99714.59;4949874;28;106003;-61
2021/08/02 17:02:41;;;;;;;4.72;1.75;;;;;;;22.12;43.33;99713.72;4969449;28;106545;-61